Ossian, IA (52161)

9:11 AM CDT on September 21, 2014 (GMT -0500)
Spillville Iowa | Change Station
CLOSE
Current Station
Personal Weather Station
Location: Fort Atkinson, IA
Elevation: 1129 ft
Nearby Weather Stations

Elev 1129 ft 43.17 °N, 91.97 °W | Updated 4 minutes ago

Overcast
Overcast
54.1 °F
Feels Like 54.1 °F
N
5.0
Wind Variable Wind from NNW
Gusts 6.0 mph

Today
High -- | Low -- °F
--% Chance of Precip.
Yesterday
High -- | Low -- °F
Precip. -- in
6:53 AM 7:06 PM
Waning Crescent, 7% visible
Pressure 29.97 in
Visibility 10.0 miles
Clouds Overcast 1800 ft
Dew Point 51 °F
Humidity 88%
Rainfall 0.00 in
Snow Depth Not available.
UV 0 out of 12
Pollen 4.30 out of 12
Air Quality Not available.
Flu Activity Not available.
METAR KDEH 211355Z AUTO 33015KT 10SM OVC018 12/09 A2997 RMK AO2

More Conditions Fewer Conditions

Pressure 29.97 in
Visibility 10.0 miles
Clouds Overcast 1800 ft
Dew Point 51 °F
Humidity 88%
Rainfall 0.00 in
Snow Depth Not available.
UV 0 out of 12
Pollen 4.30 out of 12
Air Quality Not available.
Flu Activity Not available.
METAR KDEH 211355Z AUTO 33015KT 10SM OVC018 12/09 A2997 RMK AO2

More Conditions Fewer Conditions

10-Day Weather Forecast

Almanac

Astronomy

Sep. 21, 2014 Rise Set
Actual Time 6:53 AM CDT 7:06 PM CDT
Civil Twilight 6:25 AM CDT 7:34 PM CDT
Nautical Twilight 5:51 AM CDT 8:08 PM CDT
Astronomical Twilight 5:17 AM CDT 8:42 PM CDT
Moon 4:24 AM CDT 5:45 PM CDT
Length of Visible Light 13h 09m
Length of Day
12h 12m
Tomorrow will be 2m 55s shorter.
Waning Crescent, 7% of the Moon is Illuminated
Today
Waning Crescent
Sep 24
New
Oct 1
First Quarter
Oct 8
Full
Oct 15
Last Quarter

Today's Extremes

State Highs State Lows

Community

WunderPhotos

Upload Photos

1,755,147 photos uploaded!

Nearby

Snow Depth

Station Depth Elevation
No new snow has been reported.

Earthquake Activity

City Distance Mag. Time & Date
No recent earthquake activity has been reported nearby.
Minimum magnitude displayed is 2.5.

Coastal Water Temperatures

Place Temperature
No Stations Reporting

Nearby Weather Stations